createdAt,value
2019-04-10T00:01:25.673Z,99.30
2019-04-10T00:03:55.058Z,99.30
2019-04-10T00:06:24.401Z,99.40
2019-04-10T00:08:54.701Z,99.50
2019-04-10T00:11:24.923Z,99.50
2019-04-10T00:13:55.278Z,99.60
2019-04-10T00:16:24.676Z,99.60
2019-04-10T00:18:54.054Z,99.80
2019-04-10T00:21:23.360Z,99.80
2019-04-10T00:23:52.684Z,99.90
2019-04-10T00:26:22.038Z,99.80
2019-04-10T00:28:51.920Z,99.90
2019-04-10T00:31:22.835Z,99.90
2019-04-10T00:33:53.435Z,99.90
2019-04-10T00:36:22.920Z,99.90
2019-04-10T00:38:52.262Z,99.90
2019-04-10T00:41:21.880Z,99.90
2019-04-10T00:43:51.221Z,99.90
2019-04-10T00:46:20.607Z,99.90
2019-04-10T00:48:50.226Z,99.90
2019-04-10T00:51:19.605Z,99.80
2019-04-10T00:53:49.752Z,99.80
2019-04-10T00:56:19.160Z,99.80
2019-04-10T00:58:48.499Z,99.80
2019-04-10T01:01:17.824Z,99.80
2019-04-10T01:03:48.572Z,99.80
2019-04-10T01:06:18.234Z,99.70
2019-04-10T01:08:47.567Z,99.60
2019-04-10T01:11:17.170Z,99.50
2019-04-10T01:13:47.442Z,99.50
2019-04-10T01:16:17.877Z,99.40
2019-04-10T01:18:47.841Z,99.50
2019-04-10T01:21:17.999Z,99.40
2019-04-10T01:23:47.393Z,99.50
2019-04-10T01:26:16.728Z,99.50
2019-04-10T01:28:47.087Z,99.40
2019-04-10T01:31:17.130Z,99.50
2019-04-10T01:33:47.427Z,99.50
2019-04-10T01:36:16.800Z,99.50
2019-04-10T01:38:46.292Z,99.50
2019-04-10T01:41:15.646Z,99.50
2019-04-10T01:43:44.987Z,99.60
2019-04-10T01:46:14.322Z,99.70
2019-04-10T01:48:44.038Z,99.80
2019-04-10T01:51:13.506Z,99.80
2019-04-10T01:53:42.805Z,99.80
2019-04-10T01:56:22.838Z,99.80
2019-04-10T01:58:45.456Z,99.80
2019-04-10T02:01:16.569Z,99.80
2019-04-10T02:03:46.568Z,99.80
2019-04-10T02:06:16.852Z,99.80
2019-04-10T02:08:46.247Z,99.80
2019-04-10T02:11:15.580Z,99.90
2019-04-10T02:13:44.911Z,99.80
2019-04-10T02:16:14.600Z,99.90
2019-04-10T02:18:43.970Z,99.90
2019-04-10T02:21:13.716Z,99.90
2019-04-10T02:23:43.118Z,99.90
2019-04-10T02:26:13.588Z,99.90
2019-04-10T02:28:43.034Z,99.90
2019-04-10T02:31:12.698Z,99.80
2019-04-10T02:33:42.957Z,99.90
2019-04-10T02:36:13.067Z,99.90
2019-04-10T02:38:57.262Z,99.90
2019-04-10T02:41:14.104Z,99.90
2019-04-10T02:43:45.157Z,99.90
2019-04-10T02:46:15.553Z,99.90
2019-04-10T02:48:45.322Z,99.90
2019-04-10T02:51:15.637Z,99.90
2019-04-10T02:53:45.966Z,99.90
2019-04-10T02:56:15.974Z,99.90
2019-04-10T02:58:47.025Z,99.90
2019-04-10T03:01:17.459Z,99.80
2019-04-10T03:03:46.952Z,99.70
2019-04-10T03:06:16.286Z,99.80
2019-04-10T03:09:03.429Z,99.60
2019-04-10T03:11:17.461Z,99.80
2019-04-10T03:13:49.064Z,99.60
2019-04-10T03:16:19.404Z,99.80
2019-04-10T03:18:49.329Z,99.70
2019-04-10T03:21:19.027Z,99.70
2019-04-10T03:23:49.382Z,99.80
2019-04-10T03:26:18.880Z,99.70
2019-04-10T03:28:49.307Z,99.80
2019-04-10T03:31:20.128Z,99.70
2019-04-10T03:33:55.821Z,99.70
2019-04-10T03:36:27.392Z,99.80
2019-04-10T03:39:01.848Z,99.80
2019-04-10T03:41:28.188Z,99.80
2019-04-10T03:43:58.446Z,99.80
2019-04-10T03:46:27.852Z,99.90
2019-04-10T03:48:57.723Z,99.80
2019-04-10T03:51:28.247Z,99.80
2019-04-10T03:53:58.449Z,99.90
2019-04-10T03:56:28.131Z,99.90
2019-04-10T03:58:57.862Z,99.90
2019-04-10T04:01:27.279Z,99.90
2019-04-10T04:03:57.259Z,99.90
2019-04-10T04:06:26.623Z,99.90
2019-04-10T04:09:06.683Z,99.90
2019-04-10T04:11:27.055Z,99.90
2019-04-10T04:13:56.385Z,99.90
2019-04-10T04:16:26.785Z,99.90
2019-04-10T04:18:56.337Z,99.90
2019-04-10T04:21:25.882Z,99.90
2019-04-10T04:23:55.271Z,99.90
2019-04-10T04:26:25.313Z,99.90
2019-04-10T04:28:55.664Z,99.90
2019-04-10T04:31:25.126Z,99.90
2019-04-10T04:33:55.575Z,99.90
2019-04-10T04:36:24.967Z,99.90
2019-04-10T04:38:54.377Z,99.90
2019-04-10T04:41:23.630Z,99.90
2019-04-10T04:43:53.315Z,99.90
2019-04-10T04:46:22.683Z,99.90
2019-04-10T04:48:52.319Z,99.90
2019-04-10T04:51:21.933Z,99.90
2019-04-10T04:53:52.420Z,99.90
2019-04-10T04:56:22.014Z,99.90
2019-04-10T04:58:51.787Z,99.90
2019-04-10T05:01:21.647Z,99.90
2019-04-10T05:03:50.976Z,99.90
2019-04-10T05:06:20.303Z,99.90
2019-04-10T05:08:50.598Z,99.90
2019-04-10T05:11:20.470Z,99.90
2019-04-10T05:13:50.899Z,99.90
2019-04-10T05:16:20.646Z,99.90
2019-04-10T05:18:50.192Z,99.90
2019-04-10T05:21:19.576Z,99.90
2019-04-10T05:23:49.286Z,99.90
2019-04-10T05:26:18.738Z,99.90
2019-04-10T05:28:48.615Z,99.90
2019-04-10T05:31:18.044Z,99.90
2019-04-10T05:33:47.485Z,99.90
2019-04-10T05:36:17.339Z,99.90
2019-04-10T05:38:46.707Z,99.90
2019-04-10T05:41:17.503Z,99.90
2019-04-10T05:43:46.900Z,99.90
2019-04-10T05:46:16.523Z,99.90
2019-04-10T05:48:46.283Z,99.90
2019-04-10T05:51:15.605Z,99.90
2019-04-10T05:53:45.213Z,99.90
2019-04-10T05:56:14.536Z,99.90
2019-04-10T05:58:44.834Z,99.90
2019-04-10T06:01:14.345Z,99.90
2019-04-10T06:03:43.672Z,99.90
2019-04-10T06:06:14.596Z,99.90
2019-04-10T06:08:43.951Z,99.90
2019-04-10T06:11:13.709Z,99.90
2019-04-10T06:13:45.175Z,99.90
2019-04-10T06:16:15.316Z,99.30
2019-04-10T06:18:45.177Z,99.00
2019-04-10T06:21:14.857Z,98.90
2019-04-10T06:23:44.165Z,99.10
2019-04-10T06:26:16.518Z,99.00
2019-04-10T06:28:46.520Z,99.10
2019-04-10T06:31:16.565Z,99.10
2019-04-10T06:33:46.486Z,99.00
2019-04-10T06:36:15.821Z,98.90
2019-04-10T06:38:45.421Z,99.00
2019-04-10T06:41:16.226Z,98.90
2019-04-10T06:43:45.827Z,98.70
2019-04-10T06:46:15.160Z,98.80
2019-04-10T06:48:44.593Z,98.70
2019-04-10T06:51:15.721Z,98.70
2019-04-10T06:53:47.899Z,98.60
2019-04-10T06:56:16.996Z,98.50
2019-04-10T06:58:46.329Z,98.40
2019-04-10T07:01:16.663Z,98.20
2019-04-10T07:03:56.539Z,98.20
2019-04-10T07:06:21.631Z,98.10
2019-04-10T07:08:50.849Z,98.10
2019-04-10T07:11:21.692Z,97.80
2019-04-10T07:13:51.504Z,97.60
2019-04-10T07:16:21.709Z,97.60
2019-04-10T07:18:51.982Z,97.80
2019-04-10T07:21:22.204Z,97.50
2019-04-10T07:23:52.438Z,97.40
2019-04-10T07:26:34.717Z,97.30
2019-04-10T07:28:54.360Z,97.00
2019-04-10T07:31:23.738Z,96.90
2019-04-10T07:33:53.338Z,96.60
2019-04-10T07:36:22.748Z,96.50
2019-04-10T07:38:55.859Z,96.10
2019-04-10T07:41:25.703Z,96.00
2019-04-10T07:43:56.756Z,95.70
2019-04-10T07:46:26.252Z,95.70
2019-04-10T07:48:56.559Z,95.40
2019-04-10T07:51:25.921Z,95.20
2019-04-10T07:53:55.597Z,94.80
2019-04-10T07:56:25.349Z,94.40
2019-04-10T07:58:55.905Z,94.70
2019-04-10T08:01:26.349Z,94.70
2019-04-10T08:03:55.723Z,94.50
2019-04-10T08:06:25.689Z,94.80
2019-04-10T08:08:55.534Z,94.60
2019-04-10T08:11:26.025Z,94.20
2019-04-10T08:13:56.139Z,94.10
2019-04-10T08:16:25.546Z,93.80
2019-04-10T08:18:54.870Z,93.80
2019-04-10T08:21:24.206Z,93.80
2019-04-10T08:23:54.802Z,93.80
2019-04-10T08:26:24.738Z,94.00
2019-04-10T08:28:54.160Z,93.70
2019-04-10T08:31:23.848Z,93.40
2019-04-10T08:33:53.216Z,93.20
2019-04-10T08:36:23.512Z,93.30
2019-04-10T08:38:53.035Z,93.20
2019-04-10T08:41:23.659Z,92.70
2019-04-10T08:43:52.985Z,92.40
2019-04-10T08:46:23.927Z,92.20
2019-04-10T08:48:53.932Z,92.20
2019-04-10T08:51:23.777Z,92.40
2019-04-10T08:53:55.207Z,92.30
2019-04-10T08:56:24.729Z,91.90
2019-04-10T08:58:55.116Z,91.90
2019-04-10T09:01:25.106Z,91.70
2019-04-10T09:03:55.251Z,91.70
2019-04-10T09:06:25.207Z,91.30
2019-04-10T09:08:54.569Z,90.50
2019-04-10T09:11:26.879Z,90.50
2019-04-10T09:13:55.022Z,90.40
2019-04-10T09:16:24.743Z,90.70
2019-04-10T09:18:54.066Z,90.40
2019-04-10T09:21:23.751Z,90.60
2019-04-10T09:23:55.835Z,90.60
2019-04-10T09:26:24.573Z,90.40
2019-04-10T09:28:54.903Z,90.80
2019-04-10T09:31:24.263Z,90.60
2019-04-10T09:33:53.834Z,90.60
2019-04-10T09:36:23.282Z,90.70
2019-04-10T09:38:52.928Z,90.70
2019-04-10T09:41:24.290Z,90.40
2019-04-10T09:43:54.017Z,90.50
2019-04-10T09:46:24.702Z,90.10
2019-04-10T09:48:54.541Z,90.10
2019-04-10T09:51:23.977Z,90.40
2019-04-10T09:53:53.465Z,88.80
2019-04-10T09:56:22.902Z,88.60
2019-04-10T09:58:53.221Z,89.00
2019-04-10T10:01:23.974Z,87.80
2019-04-10T10:03:53.584Z,87.80
2019-04-10T10:06:29.586Z,87.70
2019-04-10T10:08:54.384Z,89.00
2019-04-10T10:11:24.300Z,88.30
2019-04-10T10:13:54.286Z,87.10
2019-04-10T10:16:23.985Z,86.40
2019-04-10T10:18:54.073Z,85.80
2019-04-10T10:21:24.088Z,86.30
2019-04-10T10:23:54.073Z,87.30
2019-04-10T10:26:23.968Z,87.10
2019-04-10T10:28:54.598Z,85.70
2019-04-10T10:31:24.233Z,85.10
2019-04-10T10:33:54.953Z,85.80
2019-04-10T10:36:34.649Z,85.80
2019-04-10T10:39:05.046Z,85.20
2019-04-10T10:41:26.809Z,84.70
2019-04-10T10:43:56.457Z,85.40
2019-04-10T10:46:25.859Z,83.90
2019-04-10T10:48:55.821Z,83.10
2019-04-10T10:51:25.238Z,80.40
2019-04-10T10:53:54.776Z,81.20
2019-04-10T10:56:24.486Z,82.10
2019-04-10T10:58:56.242Z,81.00
2019-04-10T11:01:24.973Z,81.00
2019-04-10T11:03:54.378Z,81.60
2019-04-10T11:06:24.755Z,81.20
2019-04-10T11:08:54.153Z,80.70
2019-04-10T11:11:24.116Z,79.10
2019-04-10T11:13:53.562Z,80.00
2019-04-10T11:16:23.252Z,78.90
2019-04-10T11:18:53.091Z,79.40
2019-04-10T11:21:22.878Z,78.80
2019-04-10T11:23:53.212Z,77.00
2019-04-10T11:26:24.175Z,77.60
2019-04-10T11:28:55.652Z,76.70
2019-04-10T11:31:25.201Z,76.60
2019-04-10T11:33:56.441Z,74.80
2019-04-10T11:36:26.045Z,76.00
2019-04-10T11:39:06.544Z,73.30
2019-04-10T11:41:26.587Z,72.60
2019-04-10T11:43:56.208Z,74.80
2019-04-10T11:46:31.079Z,74.00
2019-04-10T11:48:56.679Z,73.10
2019-04-10T11:51:30.130Z,73.50
2019-04-10T11:53:59.078Z,70.10
2019-04-10T11:56:30.194Z,68.60
2019-04-10T11:59:01.629Z,70.00
2019-04-10T12:01:31.190Z,70.60
2019-04-10T12:04:02.546Z,70.00
2019-04-10T12:06:33.890Z,67.20
2019-04-10T12:09:32.031Z,69.00
2019-04-10T12:11:35.170Z,66.10
2019-04-10T12:14:05.018Z,66.70
2019-04-10T12:16:34.536Z,66.30
2019-04-10T12:19:04.718Z,66.10
2019-04-10T12:21:34.267Z,63.60
2019-04-10T12:24:05.268Z,62.70
2019-04-10T12:26:35.979Z,60.90
2019-04-10T12:29:06.668Z,60.50
2019-04-10T12:31:36.899Z,61.10
2019-04-10T12:34:06.644Z,61.10
2019-04-10T12:36:36.400Z,60.20
2019-04-10T12:39:09.285Z,59.40
2019-04-10T12:41:39.418Z,57.70
2019-04-10T12:44:09.615Z,56.90
2019-04-10T12:46:39.480Z,55.80
2019-04-10T12:49:09.578Z,56.30
2019-04-10T12:51:41.554Z,56.80
2019-04-10T12:54:12.108Z,56.90
2019-04-10T12:56:42.131Z,56.20
2019-04-10T12:59:11.435Z,55.30
2019-04-10T13:01:40.894Z,53.60
2019-04-10T13:04:10.191Z,52.50
2019-04-10T13:06:40.151Z,52.30
2019-04-10T13:09:12.878Z,52.30
2019-04-10T13:11:42.669Z,52.50
2019-04-10T13:14:12.605Z,53.20
2019-04-10T13:16:42.836Z,54.30
2019-04-10T13:19:13.124Z,53.90
2019-04-10T13:21:42.792Z,52.90
2019-04-10T13:24:13.187Z,53.50
2019-04-10T13:26:42.651Z,53.80
2019-04-10T13:29:12.042Z,53.00
2019-04-10T13:31:42.496Z,51.80
2019-04-10T13:34:13.100Z,51.90
2019-04-10T13:36:43.859Z,51.80
2019-04-10T13:39:18.900Z,50.50
2019-04-10T13:41:48.397Z,49.90
2019-04-10T13:44:18.204Z,50.20
2019-04-10T13:46:47.698Z,49.40
2019-04-10T13:49:17.771Z,49.00
2019-04-10T13:51:47.698Z,48.80
2019-04-10T13:54:17.559Z,49.30
2019-04-10T13:56:48.029Z,49.10
2019-04-10T13:59:17.334Z,48.50
2019-04-10T14:01:47.776Z,48.60
2019-04-10T14:04:17.376Z,48.60
2019-04-10T14:06:49.096Z,47.10
2019-04-10T14:09:31.104Z,47.20
2019-04-10T14:11:51.325Z,46.50
2019-04-10T14:14:20.870Z,46.60
2019-04-10T14:16:50.350Z,47.10
2019-04-10T14:19:20.010Z,47.50
2019-04-10T14:21:49.346Z,47.60
2019-04-10T14:24:19.980Z,46.40
2019-04-10T14:27:03.580Z,47.30
2019-04-10T14:29:34.325Z,48.70
2019-04-10T14:32:09.440Z,48.00
2019-04-10T14:34:38.885Z,47.30
2019-04-10T14:37:09.832Z,46.50
2019-04-10T14:39:39.615Z,45.70
2019-04-10T14:42:10.603Z,46.30
2019-04-10T14:44:40.926Z,46.00
2019-04-10T14:47:13.239Z,45.90
2019-04-10T14:49:43.030Z,46.40
2019-04-10T14:52:12.832Z,47.20
2019-04-10T14:54:42.170Z,45.70
2019-04-10T14:57:12.672Z,44.40
2019-04-10T14:59:42.281Z,45.60
2019-04-10T15:02:12.659Z,45.10
2019-04-10T15:04:42.045Z,46.90
2019-04-10T15:07:12.293Z,45.00
2019-04-10T15:09:41.801Z,44.40
2019-04-10T15:12:12.198Z,45.70
2019-04-10T15:14:41.674Z,47.00
2019-04-10T15:17:10.987Z,46.80
2019-04-10T15:19:40.649Z,46.80
2019-04-10T15:22:10.054Z,48.00
2019-04-10T15:24:39.749Z,46.40
2019-04-10T15:27:09.182Z,45.90
2019-04-10T15:29:38.659Z,45.60
2019-04-10T15:32:08.499Z,46.20
2019-04-10T15:34:38.117Z,46.90
2019-04-10T15:37:08.872Z,45.90
2019-04-10T15:39:40.139Z,45.20
2019-04-10T15:42:09.932Z,45.10
2019-04-10T15:44:40.761Z,45.50
2019-04-10T15:47:16.611Z,45.50
2019-04-10T15:49:41.461Z,45.60
2019-04-10T15:52:10.802Z,44.70
2019-04-10T15:54:40.404Z,44.20
2019-04-10T15:57:10.815Z,45.20
2019-04-10T15:59:40.677Z,45.40
2019-04-10T16:02:11.202Z,45.60
2019-04-10T16:04:40.898Z,44.30
2019-04-10T16:07:10.383Z,43.30
2019-04-10T16:09:47.451Z,44.60
2019-04-10T16:12:18.651Z,44.20
2019-04-10T16:14:48.618Z,44.00
2019-04-10T16:17:35.557Z,42.70
2019-04-10T16:20:25.357Z,42.30
2019-04-10T16:23:05.849Z,42.90
2019-04-10T16:25:36.348Z,44.70
2019-04-10T16:28:06.258Z,45.20
2019-04-10T16:30:37.061Z,45.90
2019-04-10T16:33:07.077Z,46.20
2019-04-10T16:35:37.315Z,47.20
2019-04-10T16:38:08.619Z,47.80
2019-04-10T16:40:38.387Z,47.80
2019-04-10T16:43:08.598Z,49.00
2019-04-10T16:45:38.629Z,49.60
2019-04-10T16:48:08.612Z,49.70
2019-04-10T16:50:38.506Z,49.10
2019-04-10T16:53:08.114Z,50.00
2019-04-10T16:55:37.667Z,50.50
2019-04-10T16:58:07.582Z,51.50
2019-04-10T17:00:37.690Z,51.60
2019-04-10T17:03:07.406Z,52.40
2019-04-10T17:05:37.707Z,52.90
2019-04-10T17:08:07.766Z,53.40
2019-04-10T17:10:38.603Z,53.90
2019-04-10T17:13:08.941Z,54.40
2019-04-10T17:15:39.868Z,54.60
2019-04-10T17:18:10.722Z,54.40
2019-04-10T17:20:40.649Z,55.10
2019-04-10T17:23:10.341Z,55.60
2019-04-10T17:25:40.717Z,57.10
2019-04-10T17:28:10.700Z,57.90
2019-04-10T17:30:40.618Z,59.10
2019-04-10T17:33:11.029Z,59.90
2019-04-10T17:35:41.647Z,60.20
2019-04-10T17:38:12.055Z,60.70
2019-04-10T17:40:48.232Z,60.70
2019-04-10T17:43:13.975Z,60.90
2019-04-10T17:45:44.872Z,61.20
2019-04-10T17:48:15.832Z,61.40
2019-04-10T17:50:45.815Z,62.70
2019-04-10T17:53:17.163Z,63.40
2019-04-10T17:55:49.665Z,63.40
2019-04-10T17:58:19.401Z,64.90
2019-04-10T18:00:52.000Z,64.80
2019-04-10T18:03:21.803Z,65.60
2019-04-10T18:05:51.272Z,66.40
2019-04-10T18:08:24.099Z,66.70
2019-04-10T18:10:54.462Z,67.60
2019-04-10T18:13:24.573Z,67.60
2019-04-10T18:15:55.427Z,68.90
2019-04-10T18:18:25.102Z,69.00
2019-04-10T18:20:55.998Z,69.90
2019-04-10T18:23:25.337Z,70.50
2019-04-10T18:25:54.693Z,70.90
2019-04-10T18:28:24.057Z,71.30
2019-04-10T18:30:54.488Z,71.50
2019-04-10T18:33:24.566Z,72.00
2019-04-10T18:35:53.982Z,73.10
2019-04-10T18:38:23.749Z,73.50
2019-04-10T18:41:00.602Z,74.30
2019-04-10T18:43:25.605Z,74.50
2019-04-10T18:46:07.082Z,75.70
2019-04-10T18:48:26.974Z,75.40
2019-04-10T18:50:57.281Z,76.20
2019-04-10T18:53:26.814Z,76.00
2019-04-10T18:55:56.641Z,76.40
2019-04-10T18:58:27.701Z,77.10
2019-04-10T19:00:58.847Z,77.80
2019-04-10T19:03:54.669Z,78.20
2019-04-10T19:06:21.102Z,79.10
2019-04-10T19:09:04.485Z,79.00
2019-04-10T19:11:26.798Z,79.50
2019-04-10T19:13:55.771Z,80.50
2019-04-10T19:16:27.672Z,81.60
2019-04-10T19:18:57.086Z,81.30
2019-04-10T19:21:27.243Z,81.90
2019-04-10T19:23:57.382Z,82.30
2019-04-10T19:26:27.427Z,82.30
2019-04-10T19:28:57.194Z,82.70
2019-04-10T19:31:28.117Z,83.30
2019-04-10T19:33:57.459Z,83.80
2019-04-10T19:36:27.863Z,84.00
2019-04-10T19:38:57.893Z,84.70
2019-04-10T19:41:31.998Z,85.10
2019-04-10T19:43:58.900Z,85.10
2019-04-10T19:46:29.261Z,85.60
2019-04-10T19:48:59.672Z,85.80
2019-04-10T19:51:30.221Z,86.40
2019-04-10T19:54:00.675Z,87.20
2019-04-10T19:56:30.839Z,87.90
2019-04-10T19:59:00.750Z,88.30
2019-04-10T20:01:31.443Z,88.60
2019-04-10T20:04:01.924Z,89.10
2019-04-10T20:06:32.183Z,89.40
2019-04-10T20:09:01.612Z,89.90
2019-04-10T20:11:37.807Z,90.10
2019-04-10T20:14:02.079Z,90.20
2019-04-10T20:16:31.430Z,90.50
2019-04-10T20:19:01.336Z,90.60
2019-04-10T20:21:30.851Z,90.80
2019-04-10T20:24:00.572Z,90.90
2019-04-10T20:26:30.070Z,91.10
2019-04-10T20:28:59.398Z,91.20
2019-04-10T20:31:31.143Z,91.30
2019-04-10T20:34:00.604Z,91.50
2019-04-10T20:36:31.061Z,91.70
2019-04-10T20:39:00.977Z,91.90
2019-04-10T20:41:30.834Z,92.00
2019-04-10T20:44:00.148Z,92.10
2019-04-10T20:46:30.509Z,92.30
2019-04-10T20:49:00.576Z,92.30
2019-04-10T20:51:30.492Z,92.60
2019-04-10T20:54:00.164Z,92.80
2019-04-10T20:56:30.541Z,92.90
2019-04-10T20:59:00.087Z,93.20
2019-04-10T21:01:29.490Z,93.30
2019-04-10T21:03:58.886Z,93.50
2019-04-10T21:06:28.159Z,93.60
2019-04-10T21:08:58.697Z,93.80
2019-04-10T21:11:29.225Z,94.00
2019-04-10T21:13:58.727Z,94.30
2019-04-10T21:16:28.416Z,94.50
2019-04-10T21:18:57.808Z,94.50
2019-04-10T21:21:27.148Z,94.50
2019-04-10T21:23:56.745Z,94.60
2019-04-10T21:26:26.187Z,94.70
2019-04-10T21:28:55.883Z,94.80
2019-04-10T21:31:34.228Z,95.00
2019-04-10T21:34:05.936Z,95.00
2019-04-10T21:36:37.043Z,95.10
2019-04-10T21:39:09.484Z,95.30
2019-04-10T21:41:42.497Z,95.30
2019-04-10T21:44:13.003Z,95.40
2019-04-10T21:46:42.660Z,95.60
2019-04-10T21:49:12.077Z,95.70
2019-04-10T21:51:42.750Z,95.70
2019-04-10T21:54:12.542Z,96.00
2019-04-10T21:56:43.122Z,95.90
2019-04-10T21:59:14.011Z,96.00
2019-04-10T22:01:44.865Z,96.10
2019-04-10T22:04:14.801Z,96.20
2019-04-10T22:06:51.661Z,96.20
2019-04-10T22:09:31.721Z,96.30
2019-04-10T22:12:03.714Z,96.50
2019-04-10T22:14:33.533Z,96.50
2019-04-10T22:17:04.079Z,96.50
2019-04-10T22:19:35.665Z,96.70
2019-04-10T22:22:06.263Z,96.60
2019-04-10T22:24:36.244Z,96.70
2019-04-10T22:27:07.136Z,96.70
2019-04-10T22:29:36.933Z,96.90
2019-04-10T22:32:06.636Z,97.00
2019-04-10T22:34:36.398Z,97.00
2019-04-10T22:37:06.390Z,97.10
2019-04-10T22:39:35.971Z,97.20
2019-04-10T22:42:07.425Z,97.30
2019-04-10T22:44:42.521Z,97.30
2019-04-10T22:47:09.218Z,97.40
2019-04-10T22:49:39.360Z,97.30
2019-04-10T22:52:09.298Z,97.50
2019-04-10T22:54:39.006Z,97.50
2019-04-10T22:57:08.547Z,97.60
2019-04-10T22:59:38.321Z,97.60
2019-04-10T23:02:11.702Z,97.80
2019-04-10T23:04:39.250Z,97.80
2019-04-10T23:07:09.383Z,97.80
2019-04-10T23:09:38.926Z,98.00
2019-04-10T23:12:09.780Z,97.90
2019-04-10T23:14:39.723Z,97.90
2019-04-10T23:17:10.641Z,98.00
2019-04-10T23:19:40.436Z,98.10
2019-04-10T23:22:10.762Z,98.10
2019-04-10T23:24:41.181Z,98.10
2019-04-10T23:27:11.510Z,98.30
2019-04-10T23:29:41.267Z,98.20
2019-04-10T23:32:11.179Z,98.40
2019-04-10T23:34:40.994Z,98.40
2019-04-10T23:37:10.886Z,98.50
2019-04-10T23:39:40.645Z,98.40
2019-04-10T23:42:10.824Z,98.90
2019-04-10T23:44:40.840Z,98.70
2019-04-10T23:47:10.233Z,98.70
2019-04-10T23:49:39.804Z,98.70
2019-04-10T23:52:09.683Z,98.70
2019-04-10T23:54:39.490Z,98.80
2019-04-10T23:57:10.127Z,98.90
2019-04-10T23:59:39.663Z,99.00
